createdAt,value
2022-12-06T00:00:08.397Z,101075.72
2022-12-06T00:02:40.388Z,101073.03
2022-12-06T00:05:09.930Z,101075.72
2022-12-06T00:07:37.797Z,101071.28
2022-12-06T00:10:07.611Z,101069.63
2022-12-06T00:12:35.446Z,101063.44
2022-12-06T00:15:03.454Z,101067.88
2022-12-06T00:17:31.307Z,101060.91
2022-12-06T00:19:59.350Z,101060.91
2022-12-06T00:22:28.849Z,101063.53
2022-12-06T00:24:56.711Z,101061.78
2022-12-06T00:27:24.636Z,101061.78
2022-12-06T00:29:52.565Z,101058.31
2022-12-06T00:32:20.435Z,101068.81
2022-12-06T00:34:48.265Z,101065.25
2022-12-06T00:37:16.124Z,101063.53
2022-12-06T00:39:45.386Z,101062.66
2022-12-06T00:42:13.249Z,101069.56
2022-12-06T00:44:41.109Z,101060.84
2022-12-06T00:47:08.964Z,101059.13
2022-12-06T00:49:36.778Z,101055.63
2022-12-06T00:52:04.981Z,101057.41
2022-12-06T00:54:32.831Z,101056.50
2022-12-06T00:57:02.038Z,101055.69
2022-12-06T00:59:29.898Z,101060.03
2022-12-06T01:01:57.765Z,101057.41
2022-12-06T01:04:25.622Z,101060.03
2022-12-06T01:06:53.504Z,101052.19
2022-12-06T01:09:21.419Z,101043.44
2022-12-06T01:11:49.262Z,101057.41
2022-12-06T01:14:18.374Z,101046.97
2022-12-06T01:16:46.194Z,101047.84
2022-12-06T01:19:14.375Z,101047.84
2022-12-06T01:21:42.229Z,101035.59
2022-12-06T01:24:09.974Z,101042.63
2022-12-06T01:26:37.770Z,101037.41
2022-12-06T01:29:05.841Z,101032.97
2022-12-06T01:31:38.663Z,101026.00
2022-12-06T01:34:08.072Z,101024.25
2022-12-06T01:36:35.960Z,101029.50
2022-12-06T01:39:06.864Z,101032.09
2022-12-06T01:41:34.925Z,101038.22
2022-12-06T01:44:02.816Z,101040.81
2022-12-06T01:46:34.620Z,101039.13
2022-12-06T01:49:16.593Z,101035.59
2022-12-06T01:51:47.068Z,101038.22
2022-12-06T01:54:17.152Z,101033.91
2022-12-06T01:56:45.466Z,101030.38
2022-12-06T01:59:13.764Z,101026.00
2022-12-06T02:01:42.402Z,101032.09
2022-12-06T02:04:11.715Z,101027.69
2022-12-06T02:06:41.376Z,101026.81
2022-12-06T02:09:11.053Z,101019.84
2022-12-06T02:11:41.620Z,101026.88
2022-12-06T02:14:14.489Z,101017.25
2022-12-06T02:16:59.259Z,101021.66
2022-12-06T02:20:05.353Z,101019.91
2022-12-06T02:23:13.621Z,101007.78
2022-12-06T02:26:17.733Z,101008.59
2022-12-06T02:29:22.931Z,101005.97
2022-12-06T02:31:57.527Z,101000.75
2022-12-06T02:34:32.638Z,101003.34
2022-12-06T02:37:07.527Z,100997.25
2022-12-06T02:39:38.103Z,100996.41
2022-12-06T02:42:09.641Z,100997.31
2022-12-06T02:44:42.187Z,100998.22
2022-12-06T02:47:14.136Z,100987.75
2022-12-06T02:49:49.607Z,100983.34
2022-12-06T02:52:21.076Z,100994.72
2022-12-06T02:54:50.604Z,100987.75
2022-12-06T02:57:20.577Z,100984.25
2022-12-06T02:59:55.273Z,100980.72
2022-12-06T03:02:25.344Z,100982.47
2022-12-06T03:05:06.241Z,100989.41
2022-12-06T03:07:41.012Z,100985.06
2022-12-06T03:10:23.377Z,100978.97
2022-12-06T03:12:57.308Z,100977.16
2022-12-06T03:15:37.468Z,100974.56
2022-12-06T03:18:12.386Z,100978.13
2022-12-06T03:20:45.716Z,100975.44
2022-12-06T03:23:17.545Z,100972.00
2022-12-06T03:25:47.964Z,100967.59
2022-12-06T03:28:18.496Z,100960.69
2022-12-06T03:30:50.632Z,100959.75
2022-12-06T03:33:23.325Z,100963.28
2022-12-06T03:35:53.802Z,100963.28
2022-12-06T03:38:27.253Z,100950.22
2022-12-06T03:40:58.229Z,100949.38
2022-12-06T03:43:26.190Z,100946.69
2022-12-06T03:46:00.496Z,100949.38
2022-12-06T03:48:35.853Z,100952.00
2022-12-06T03:51:06.675Z,100951.19
2022-12-06T03:53:34.707Z,100952.91
2022-12-06T03:56:02.511Z,100952.00
2022-12-06T03:58:30.303Z,100947.63
2022-12-06T04:01:04.848Z,100944.16
2022-12-06T04:03:34.120Z,100938.94
2022-12-06T04:06:03.380Z,100932.00
2022-12-06T04:08:31.152Z,100935.50
2022-12-06T04:10:59.280Z,100939.84
2022-12-06T04:13:27.546Z,100933.78
2022-12-06T04:15:56.989Z,100937.22
2022-12-06T04:18:24.368Z,100933.69
2022-12-06T04:21:18.271Z,100935.50
2022-12-06T04:23:48.145Z,100938.13
2022-12-06T04:26:19.020Z,100932.00
2022-12-06T04:29:05.468Z,100929.41
2022-12-06T04:31:51.392Z,100930.28
2022-12-06T04:34:36.587Z,100927.59
2022-12-06T04:37:23.596Z,100929.31
2022-12-06T04:39:51.616Z,100924.09
2022-12-06T04:42:39.308Z,100926.78
2022-12-06T04:45:08.217Z,100933.69
2022-12-06T04:47:35.951Z,100925.88
2022-12-06T04:50:03.899Z,100926.72
2022-12-06T04:52:36.016Z,100916.25
2022-12-06T04:55:05.327Z,100915.31
2022-12-06T04:57:33.228Z,100912.72
2022-12-06T05:00:01.301Z,100911.84
2022-12-06T05:02:29.399Z,100916.25
2022-12-06T05:04:57.441Z,100903.13
2022-12-06T05:07:25.229Z,100904.00
2022-12-06T05:09:54.320Z,100901.41
2022-12-06T05:12:22.090Z,100902.25
2022-12-06T05:14:49.964Z,100898.78
2022-12-06T05:17:17.850Z,100897.91
2022-12-06T05:19:45.600Z,100901.41
2022-12-06T05:22:13.306Z,100891.78
2022-12-06T05:24:41.094Z,100898.72
2022-12-06T05:27:10.171Z,100896.09
2022-12-06T05:29:37.940Z,100892.59
2022-12-06T05:32:06.187Z,100885.66
2022-12-06T05:34:33.939Z,100880.38
2022-12-06T05:37:01.735Z,100888.19
2022-12-06T05:39:29.753Z,100882.16
2022-12-06T05:41:57.542Z,100883.88
2022-12-06T05:44:26.672Z,100880.38
2022-12-06T05:46:54.557Z,100883.88
2022-12-06T05:49:22.300Z,100875.13
2022-12-06T05:51:50.159Z,100876.94
2022-12-06T05:54:17.915Z,100877.75
2022-12-06T05:56:45.800Z,100873.44
2022-12-06T05:59:13.518Z,100878.66
2022-12-06T06:01:43.844Z,100872.53
2022-12-06T06:04:11.688Z,100866.41
2022-12-06T06:06:39.465Z,100866.41
2022-12-06T06:09:07.234Z,100869.84
2022-12-06T06:11:35.013Z,100868.16
2022-12-06T06:14:02.796Z,100865.53
2022-12-06T06:16:30.629Z,100867.31
2022-12-06T06:19:01.722Z,100866.34
2022-12-06T06:21:29.939Z,100864.63
2022-12-06T06:23:57.793Z,100871.66
2022-12-06T06:26:25.780Z,100875.06
2022-12-06T06:28:53.544Z,100865.47
2022-12-06T06:31:21.392Z,100868.09
2022-12-06T06:33:49.345Z,100858.50
2022-12-06T06:36:18.475Z,100863.75
2022-12-06T06:38:46.236Z,100864.59
2022-12-06T06:41:14.131Z,100861.97
2022-12-06T06:43:41.912Z,100869.84
2022-12-06T06:46:09.745Z,100866.34
2022-12-06T06:48:40.138Z,100866.34
2022-12-06T06:51:10.533Z,100862.84
2022-12-06T06:53:40.293Z,100873.31
2022-12-06T06:56:08.854Z,100869.81
2022-12-06T06:58:36.757Z,100867.22
2022-12-06T07:01:06.599Z,100865.47
2022-12-06T07:03:35.141Z,100870.69
2022-12-06T07:06:05.502Z,100869.81
2022-12-06T07:08:33.562Z,100874.19
2022-12-06T07:11:02.664Z,100875.91
2022-12-06T07:13:31.720Z,100873.31
2022-12-06T07:16:00.016Z,100868.97
2022-12-06T07:18:27.853Z,100875.91
2022-12-06T07:21:00.677Z,100870.69
2022-12-06T07:23:28.627Z,100873.31
2022-12-06T07:26:06.196Z,100885.53
2022-12-06T07:28:36.597Z,100895.16
2022-12-06T07:31:11.472Z,100898.66
2022-12-06T07:33:39.831Z,100888.19
2022-12-06T07:36:13.563Z,100898.66
2022-12-06T07:38:42.956Z,100899.56
2022-12-06T07:41:31.127Z,100897.84
2022-12-06T07:44:18.292Z,100890.81
2022-12-06T07:46:46.914Z,100898.72
2022-12-06T07:49:16.993Z,100897.06
2022-12-06T07:51:45.636Z,100886.59
2022-12-06T07:54:13.906Z,100889.22
2022-12-06T07:56:44.215Z,100880.56
2022-12-06T07:59:13.065Z,100885.88
2022-12-06T08:01:41.433Z,100874.53
2022-12-06T08:04:09.579Z,100879.81
2022-12-06T08:06:37.868Z,100879.81
2022-12-06T08:09:06.889Z,100878.09
2022-12-06T08:11:35.673Z,100883.38
2022-12-06T08:14:05.452Z,100880.78
2022-12-06T08:16:33.386Z,100885.16
2022-12-06T08:19:02.979Z,100884.25
2022-12-06T08:21:30.760Z,100886.06
2022-12-06T08:23:58.560Z,100888.75
2022-12-06T08:26:26.572Z,100883.56
2022-12-06T08:28:54.466Z,100884.53
2022-12-06T08:31:25.169Z,100883.63
2022-12-06T08:33:53.208Z,100885.41
2022-12-06T08:36:23.175Z,100882.00
2022-12-06T08:38:51.877Z,100886.38
2022-12-06T08:41:37.972Z,100891.59
2022-12-06T08:44:06.796Z,100900.31
2022-12-06T08:46:36.353Z,100893.38
2022-12-06T08:49:04.836Z,100896.00
2022-12-06T08:51:34.687Z,100896.88
2022-12-06T08:54:03.358Z,100898.69
2022-12-06T08:56:31.141Z,100897.75
2022-12-06T08:58:59.194Z,100902.19
2022-12-06T09:01:34.146Z,100903.00
2022-12-06T09:04:08.653Z,100895.16
2022-12-06T09:06:39.332Z,100895.22
2022-12-06T09:09:07.763Z,100902.25
2022-12-06T09:11:35.664Z,100900.50
2022-12-06T09:14:03.719Z,100903.19
2022-12-06T09:16:31.937Z,100898.91
2022-12-06T09:18:59.828Z,100901.53
2022-12-06T09:21:30.607Z,100906.00
2022-12-06T09:23:59.520Z,100897.31
2022-12-06T09:26:28.951Z,100901.72
2022-12-06T09:28:57.577Z,100903.47
2022-12-06T09:31:26.175Z,100891.28
2022-12-06T09:33:54.085Z,100903.47
2022-12-06T09:36:24.709Z,100905.22
2022-12-06T09:38:58.273Z,100904.41
2022-12-06T09:42:10.830Z,100900.06
2022-12-06T09:45:07.262Z,100908.78
2022-12-06T09:47:49.487Z,100907.91
2022-12-06T09:50:34.671Z,100899.25
2022-12-06T09:53:17.265Z,100894.78
2022-12-06T09:55:57.749Z,100895.69
2022-12-06T09:58:38.818Z,100896.50
2022-12-06T10:01:19.037Z,100893.81
2022-12-06T10:03:59.098Z,100890.31
2022-12-06T10:06:35.932Z,100885.91
2022-12-06T10:09:28.083Z,100883.25
2022-12-06T10:12:13.573Z,100890.25
2022-12-06T10:14:57.257Z,100885.03
2022-12-06T10:17:34.282Z,100878.00
2022-12-06T10:20:12.596Z,100889.38
2022-12-06T10:22:56.363Z,100878.97
2022-12-06T10:25:27.651Z,100880.69
2022-12-06T10:28:07.733Z,100868.50
2022-12-06T10:30:40.738Z,100872.03
2022-12-06T10:33:22.585Z,100879.03
2022-12-06T10:35:55.650Z,100877.31
2022-12-06T10:38:31.398Z,100870.38
2022-12-06T10:41:10.945Z,100878.28
2022-12-06T10:43:48.583Z,100869.59
2022-12-06T10:46:42.426Z,100870.56
2022-12-06T10:49:20.284Z,100867.03
2022-12-06T10:51:56.706Z,100864.41
2022-12-06T10:54:31.600Z,100861.81
2022-12-06T10:57:04.225Z,100861.00
2022-12-06T10:59:38.344Z,100859.25
2022-12-06T11:02:21.303Z,100855.75
2022-12-06T11:04:53.383Z,100845.31
2022-12-06T11:07:25.262Z,100854.16
2022-12-06T11:09:56.639Z,100852.44
2022-12-06T11:12:31.540Z,100851.59
2022-12-06T11:15:13.473Z,100854.28
2022-12-06T11:17:45.062Z,100848.22
2022-12-06T11:20:21.860Z,100850.94
2022-12-06T11:22:59.552Z,100844.13
2022-12-06T11:25:31.464Z,100847.72
2022-12-06T11:28:09.857Z,100844.25
2022-12-06T11:30:39.121Z,100845.16
2022-12-06T11:33:07.067Z,100840.81
2022-12-06T11:35:34.782Z,100841.75
2022-12-06T11:38:06.724Z,100833.09
2022-12-06T11:40:42.289Z,100833.16
2022-12-06T11:43:16.777Z,100832.31
2022-12-06T11:45:47.247Z,100828.03
2022-12-06T11:48:18.048Z,100825.47
2022-12-06T11:50:47.146Z,100824.66
2022-12-06T11:53:22.805Z,100829.03
2022-12-06T11:55:53.604Z,100823.91
2022-12-06T11:58:27.878Z,100823.97
2022-12-06T12:01:03.257Z,100822.25
2022-12-06T12:03:33.541Z,100822.31
2022-12-06T12:06:21.232Z,100818.88
2022-12-06T12:08:59.162Z,100823.28
2022-12-06T12:11:30.250Z,100817.22
2022-12-06T12:14:02.001Z,100819.00
2022-12-06T12:16:35.750Z,100812.91
2022-12-06T12:19:06.877Z,100814.72
2022-12-06T12:21:39.655Z,100824.28
2022-12-06T12:25:03.199Z,100815.59
2022-12-06T12:27:44.951Z,100814.84
2022-12-06T12:30:34.555Z,100807.00
2022-12-06T12:33:19.632Z,100814.84
2022-12-06T12:35:49.687Z,100809.53
2022-12-06T12:38:24.735Z,100807.00
2022-12-06T12:40:55.997Z,100816.59
2022-12-06T12:43:26.636Z,100811.38
2022-12-06T12:46:22.300Z,100810.53
2022-12-06T12:48:52.412Z,100806.19
2022-12-06T12:51:33.645Z,100806.25
2022-12-06T12:54:03.574Z,100795.03
2022-12-06T12:56:34.725Z,100803.75
2022-12-06T12:59:05.047Z,100798.53
2022-12-06T13:01:43.382Z,100792.41
2022-12-06T13:04:28.193Z,100796.03
2022-12-06T13:07:00.736Z,100799.59
2022-12-06T13:09:32.085Z,100797.91
2022-12-06T13:12:04.727Z,100787.56
2022-12-06T13:14:34.224Z,100787.63
2022-12-06T13:17:08.999Z,100789.38
2022-12-06T13:19:42.867Z,100791.19
2022-12-06T13:22:17.176Z,100780.84
2022-12-06T13:24:47.405Z,100790.50
2022-12-06T13:27:19.011Z,100794.09
2022-12-06T13:29:53.507Z,100785.38
2022-12-06T13:32:24.109Z,100795.97
2022-12-06T13:34:57.517Z,100784.75
2022-12-06T13:37:30.929Z,100784.78
2022-12-06T13:39:59.153Z,100788.38
2022-12-06T13:42:46.554Z,100787.50
2022-12-06T13:45:40.490Z,100788.44
2022-12-06T13:48:37.222Z,100784.19
2022-12-06T13:51:11.914Z,100778.03
2022-12-06T13:54:15.873Z,100783.31
2022-12-06T13:56:43.784Z,100782.44
2022-12-06T13:59:34.551Z,100780.75
2022-12-06T14:02:02.449Z,100786.88
2022-12-06T14:04:38.812Z,100790.47
2022-12-06T14:09:41.090Z,100793.16
2022-12-06T14:12:16.545Z,100794.91
2022-12-06T14:14:44.687Z,100799.38
2022-12-06T14:17:26.942Z,100797.63
2022-12-06T14:20:04.761Z,100802.88
2022-12-06T14:22:36.766Z,100803.81
2022-12-06T14:25:07.472Z,100806.50
2022-12-06T14:27:42.884Z,100803.03
2022-12-06T14:30:24.806Z,100810.09
2022-12-06T14:32:55.415Z,100797.06
2022-12-06T14:35:25.351Z,100798.00
2022-12-06T14:37:56.857Z,100798.06
2022-12-06T14:40:45.955Z,100799.00
2022-12-06T14:43:17.270Z,100799.91
2022-12-06T14:45:46.642Z,100802.59
2022-12-06T14:48:14.705Z,100803.53
2022-12-06T14:50:44.354Z,100800.91
2022-12-06T14:53:15.631Z,100800.03
2022-12-06T14:55:56.144Z,100799.16
2022-12-06T14:58:27.365Z,100808.88
2022-12-06T15:00:57.709Z,100805.41
2022-12-06T15:03:30.867Z,100800.09
2022-12-06T15:06:17.276Z,100795.81
2022-12-06T15:08:54.923Z,100802.84
2022-12-06T15:11:44.253Z,100802.84
2022-12-06T15:14:14.762Z,100799.41
2022-12-06T15:16:44.931Z,100797.66
2022-12-06T15:19:14.946Z,100800.28
2022-12-06T15:21:43.180Z,100793.28
2022-12-06T15:24:20.259Z,100792.47
2022-12-06T15:26:48.648Z,100791.59
2022-12-06T15:29:16.572Z,100793.34
2022-12-06T15:31:49.318Z,100796.84
2022-12-06T15:34:26.766Z,100791.63
2022-12-06T15:37:15.128Z,100790.72
2022-12-06T15:39:44.936Z,100791.63
2022-12-06T15:42:19.067Z,100791.63
2022-12-06T15:44:49.888Z,100802.16
2022-12-06T15:47:19.519Z,100794.22
2022-12-06T15:49:47.595Z,100798.59
2022-12-06T15:52:18.052Z,100796.84
2022-12-06T15:54:47.201Z,100796.84
2022-12-06T15:57:14.942Z,100796.84
2022-12-06T15:59:42.712Z,100799.47
2022-12-06T16:02:15.492Z,100802.09
2022-12-06T16:04:43.936Z,100801.22
2022-12-06T16:07:13.406Z,100792.47
2022-12-06T16:09:41.215Z,100799.44
2022-12-06T16:12:10.621Z,100802.06
2022-12-06T16:14:38.405Z,100799.41
2022-12-06T16:17:06.291Z,100798.47
2022-12-06T16:19:47.957Z,100805.50
2022-12-06T16:22:15.803Z,100803.78
2022-12-06T16:24:42.582Z,100800.28
2022-12-06T16:27:11.778Z,100800.22
2022-12-06T16:29:39.508Z,100794.97
2022-12-06T16:32:07.599Z,100795.91
2022-12-06T16:34:35.357Z,100797.66
2022-12-06T16:37:06.444Z,100800.28
2022-12-06T16:39:35.917Z,100803.78
2022-12-06T16:42:05.148Z,100796.84
2022-12-06T16:44:50.842Z,100799.44
2022-12-06T16:49:48.362Z,100796.84
2022-12-06T16:52:17.188Z,100797.75
2022-12-06T16:54:45.455Z,100798.66
2022-12-06T16:57:13.480Z,100802.16
2022-12-06T16:59:43.293Z,100802.16
2022-12-06T17:02:26.460Z,100800.44
2022-12-06T17:04:55.076Z,100798.69
2022-12-06T17:07:23.048Z,100800.50
2022-12-06T17:09:50.792Z,100802.25
2022-12-06T17:12:18.726Z,100800.53
2022-12-06T17:14:48.188Z,100792.66
2022-12-06T17:17:17.411Z,100799.75
2022-12-06T17:19:45.474Z,100786.66
2022-12-06T17:22:16.356Z,100791.06
2022-12-06T17:24:44.225Z,100798.06
2022-12-06T17:27:14.795Z,100792.81
2022-12-06T17:29:43.610Z,100793.72
2022-12-06T17:32:13.508Z,100805.97
2022-12-06T17:34:41.313Z,100803.38
2022-12-06T17:37:09.304Z,100802.47
2022-12-06T17:39:37.108Z,100800.75
2022-12-06T17:42:22.889Z,100815.56
2022-12-06T17:44:50.762Z,100806.88
2022-12-06T17:47:20.435Z,100805.09
2022-12-06T17:49:48.466Z,100810.41
2022-12-06T17:52:16.736Z,100808.59
2022-12-06T17:54:44.783Z,100806.81
2022-12-06T17:57:16.660Z,100807.66
2022-12-06T17:59:45.761Z,100813.78
2022-12-06T18:02:16.092Z,100812.03
2022-12-06T18:04:47.442Z,100813.72
2022-12-06T18:07:16.480Z,100813.69
2022-12-06T18:09:44.326Z,100816.22
2022-12-06T18:12:14.190Z,100815.34
2022-12-06T18:14:41.949Z,100814.41
2022-12-06T18:17:09.811Z,100817.91
2022-12-06T18:19:37.634Z,100817.03
2022-12-06T18:22:06.793Z,100821.41
2022-12-06T18:24:36.230Z,100817.81
2022-12-06T18:27:05.196Z,100822.16
2022-12-06T18:29:33.321Z,100820.44
2022-12-06T18:32:01.220Z,100816.94
2022-12-06T18:34:29.154Z,100822.16
2022-12-06T18:36:57.176Z,100823.91
2022-12-06T18:39:26.457Z,100825.66
2022-12-06T18:41:55.056Z,100823.03
2022-12-06T18:44:23.721Z,100820.41
2022-12-06T18:46:51.966Z,100817.78
2022-12-06T18:49:19.916Z,100813.38
2022-12-06T18:51:47.740Z,100821.22
2022-12-06T18:54:15.580Z,100824.66
2022-12-06T18:56:44.734Z,100815.06
2022-12-06T18:59:13.228Z,100811.53
2022-12-06T19:01:42.733Z,100813.25
2022-12-06T19:04:14.717Z,100807.09
2022-12-06T19:06:44.020Z,100803.59
2022-12-06T19:09:13.937Z,100814.00
2022-12-06T19:11:45.972Z,100816.63
2022-12-06T19:14:14.670Z,100807.81
2022-12-06T19:16:44.157Z,100802.53
2022-12-06T19:19:16.610Z,100810.38
2022-12-06T19:21:45.399Z,100812.91
2022-12-06T19:24:15.558Z,100808.47
2022-12-06T19:26:45.415Z,100799.69
2022-12-06T19:29:13.610Z,100808.38
2022-12-06T19:31:41.388Z,100808.34
2022-12-06T19:34:16.229Z,100807.44
2022-12-06T19:36:44.306Z,100803.81
2022-12-06T19:39:13.836Z,100804.66
2022-12-06T19:41:55.917Z,100808.94
2022-12-06T19:44:25.604Z,100808.94
2022-12-06T19:46:53.861Z,100808.00
2022-12-06T19:49:23.970Z,100798.31
2022-12-06T19:51:52.816Z,100804.38
2022-12-06T19:54:22.787Z,100814.78
2022-12-06T19:56:53.156Z,100802.56
2022-12-06T19:59:21.263Z,100804.25
2022-12-06T20:01:52.805Z,100811.19
2022-12-06T20:04:22.728Z,100809.38
2022-12-06T20:06:51.531Z,100807.63
2022-12-06T20:09:20.492Z,100801.50
2022-12-06T20:12:02.034Z,100803.16
2022-12-06T20:14:31.804Z,100806.63
2022-12-06T20:17:01.007Z,100802.22
2022-12-06T20:19:29.456Z,100803.00
2022-12-06T20:21:57.418Z,100796.91
2022-12-06T20:24:25.317Z,100803.81
2022-12-06T20:26:55.445Z,100795.09
2022-12-06T20:29:23.571Z,100799.34
2022-12-06T20:31:51.982Z,100800.22
2022-12-06T20:34:21.046Z,100794.91
2022-12-06T20:36:48.759Z,100794.84
2022-12-06T20:39:21.695Z,100800.09
2022-12-06T20:41:50.196Z,100793.84
2022-12-06T20:44:18.205Z,100787.69
2022-12-06T20:46:46.617Z,100788.50
2022-12-06T20:49:16.174Z,100791.97
2022-12-06T20:51:51.089Z,100795.34
2022-12-06T20:54:20.461Z,100789.19
2022-12-06T20:56:51.622Z,100789.13
2022-12-06T20:59:19.966Z,100792.56
2022-12-06T21:01:48.234Z,100791.56
2022-12-06T21:04:16.666Z,100796.72
2022-12-06T21:06:45.809Z,100793.19
2022-12-06T21:09:13.727Z,100796.66
2022-12-06T21:11:41.771Z,100798.28
2022-12-06T21:14:12.626Z,100795.66
2022-12-06T21:16:42.326Z,100799.97
2022-12-06T21:19:13.895Z,100796.41
2022-12-06T21:21:44.792Z,100801.50
2022-12-06T21:24:16.465Z,100798.84
2022-12-06T21:26:44.279Z,100804.84
2022-12-06T21:29:16.558Z,100801.25
2022-12-06T21:31:44.439Z,100802.00
2022-12-06T21:34:12.517Z,100796.56
2022-12-06T21:36:40.802Z,100799.09
2022-12-06T21:39:09.340Z,100803.41
2022-12-06T21:41:38.992Z,100799.84
2022-12-06T21:44:06.989Z,100786.72
2022-12-06T21:46:34.968Z,100788.41
2022-12-06T21:49:03.095Z,100790.13
2022-12-06T21:51:32.667Z,100787.38
2022-12-06T21:54:00.430Z,100790.88
2022-12-06T21:56:30.759Z,100784.72
2022-12-06T21:59:01.265Z,100785.53
2022-12-06T22:01:31.301Z,100781.16
2022-12-06T22:04:03.729Z,100779.34
2022-12-06T22:06:32.602Z,100776.63
2022-12-06T22:09:03.003Z,100767.69
2022-12-06T22:11:31.430Z,100772.88
2022-12-06T22:14:01.496Z,100771.81
2022-12-06T22:16:30.081Z,100768.19
2022-12-06T22:18:58.563Z,100768.03
2022-12-06T22:21:28.767Z,100764.41
2022-12-06T22:23:57.997Z,100765.97
2022-12-06T22:26:28.317Z,100771.03
2022-12-06T22:28:56.639Z,100765.63
2022-12-06T22:31:27.507Z,100768.03
2022-12-06T22:33:56.804Z,100773.16
2022-12-06T22:36:24.777Z,100765.13
2022-12-06T22:38:54.324Z,100760.59
2022-12-06T22:41:22.706Z,100762.19
2022-12-06T22:43:52.065Z,100759.41
2022-12-06T22:46:20.770Z,100764.50
2022-12-06T22:48:50.480Z,100768.78
2022-12-06T22:51:20.509Z,100763.34
2022-12-06T22:53:52.972Z,100758.00
2022-12-06T22:56:20.786Z,100745.66
2022-12-06T22:58:48.920Z,100742.84
2022-12-06T23:01:31.131Z,100737.41
2022-12-06T23:04:02.207Z,100743.34
2022-12-06T23:06:30.477Z,100750.16
2022-12-06T23:08:58.375Z,100747.28
2022-12-06T23:11:28.508Z,100744.47
2022-12-06T23:13:57.217Z,100746.97
2022-12-06T23:16:27.215Z,100740.66
2022-12-06T23:18:56.201Z,100739.66
2022-12-06T23:21:27.166Z,100740.25
2022-12-06T23:23:56.893Z,100733.13
2022-12-06T23:26:26.816Z,100739.94
2022-12-06T23:28:55.306Z,100726.69
2022-12-06T23:31:25.025Z,100727.50
2022-12-06T23:33:54.882Z,100717.84
2022-12-06T23:36:25.664Z,100725.53
2022-12-06T23:38:53.618Z,100716.69
2022-12-06T23:41:24.265Z,100710.44
2022-12-06T23:43:53.365Z,100699.00
2022-12-06T23:46:23.165Z,100699.00
2022-12-06T23:48:51.261Z,100704.13
2022-12-06T23:51:21.376Z,100694.38
2022-12-06T23:53:52.951Z,100694.25
2022-12-06T23:56:22.504Z,100687.25
2022-12-06T23:58:51.318Z,100688.91
